TFM - Tactical Decision Aid
ID: Runway Winds: CIG/VIS Threshold:

KDEN - Denver Intl, CO, US

Updated at: 1229 UTC 15 Jul 2020
Latest TAF at: 1120 UTC 15 Jul 2020

TAF Board

Time1153Z 15/13Z 15/14Z 15/15Z 15/16Z 15/17Z 15/18Z 15/19Z 15/20Z 15/21Z 15/22Z 15/23Z 16/00Z 16/01Z>>
Type OBS PRVL
  [TEMP]  
PRVL
  [TEMP]  
PRVL PRVL PRVL PRVL PRVL PRVL PRVL PRVL
  [PRB30]  
PRVL
  [PRB30]  
PRVL
  [PRB30]  
PRVL
  [PRB30]  
VIS 10 >6 >6 >6 >6 >6 >6 >6 >6 >6 >6 >6 >6 >6
CIG 120 --
  [35]  
--
  [35]  
-- 60 60 60 60 60 110 110
  [60]  
110
  [60]  
110
  [60]  
110
  [60]  
Cover BKN SCT
  [BKN]  
SCT
  [BKN]  
SCT BKN BKN BKN BKN BKN BKN BKN
  [BKN]  
BKN
  [BKN]  
BKN
  [BKN]  
BKN
  [BKN]  
FltCat VFR VFR
  [VFR]  
VFR
  [VFR]  
VFR VFR VFR VFR VFR VFR VFR VFR
  [VFR]  
VFR
  [VFR]  
VFR
  [VFR]  
VFR
  [VFR]  
WX -- --
  [--]  
--
  [--]  
-- VCSH VCSH VCSH VCSH VCSH -- --
  [-TSRA]  
--
  [-TSRA]  
--
  [-TSRA]  
--
  [-TSRA]  
WDir 230 230
[230]
230
[230]
230 40 40 40 40 40 90 90
[VRB]
90
[VRB]
90
[VRB]
90
[VRB]
WSpd 10 5
  [5]  
5
  [5]  
5 10 10 10 10 10 11 11
  [20]  
11
  [20]  
11
  [20]  
11
  [20]  
WGst -- --
  [--]  
--
  [--]  
-- -- -- -- -- -- -- --
  [35]  
--
  [35]  
--
  [35]  
--
  [35]  

TDA Impact Legend

  None Marginal Slight Moderate High
Visibility (sm) >5 3≤X≤5 1≤X<3 0.5≤X<1 <0.5
Ceiling (100 ft) >30 10≤X≤30 4≤X<10 2≤X<4 <2
Wind Speed (kt) <15 15≤X<25 25≤X<30 ≥30
Wind Gust (kt) <15 15≤X<25 25≤X<35 ≥35
Weather No Wx Reported VCTS -TS,-FZRA TS,FZRA +TS,+FZRA
TAF
KDEN 151120Z 1512/1618 23005KT P6SM SCT035
  TEMPO 1512/1515 BKN035
  FM151600 04010KT P6SM VCSH SCT035 BKN060
  FM152100 09011KT P6SM SCT060 BKN110
  PROB30 1522/1602 VRB20G35KT -TSRA BKN060CB
  FM160200 15011G20KT P6SM FEW070 SCT120
  FM160600 20011KT P6SM FEW120 SCT220


METAR
KDEN 151153Z 23010KT 10SM FEW080 BKN120 BKN220 16/12 A3010 RMK AO2 SLP130 60000 70004 T01560117 10178 20156 55004
KDEN 151053Z 21008KT 10SM FEW120 SCT240 16/12 A3010 RMK AO2 SLP126 T01560122
KDEN 150953Z 23007KT 10SM FEW120 16/13 A3010 RMK AO2 SLP122 T01610128

Radar Display
Forecast Discussion